Terminal Aerodrome Forecast
Issued by NWS Binghamton, NY

Home | Current Version | Previous Version | Text Only | Print | Product List | Glossary On
Versions: 1 2 3 4 5 6 7 8 9 10 11 12 13 14 15 16 17 18
302
FTUS41 KBGM 290551
TAFBGM
TAF
KBGM 290551Z 2906/3006 33005KT P6SM OVC025
      TEMPO 2906/2909 SCT025 OVC035
     FM290900 33005KT P6SM OVC015
      TEMPO 2909/2912 OVC008
     FM291400 32010KT P6SM SCT040
     FM300000 VRB03KT P6SM SKC=

USA.gov is the U.S. government's official web portal to all federal, state and local government web resources and services.